sensor_id;sensor_type;location;lat;lon;timestamp;P1;durP1;ratioP1;P2;durP2;ratioP2
21036;SDS011;10677;50.942;4.028;2022-09-14T00:01:34;8.02;;;5.00;;
21036;SDS011;10677;50.942;4.028;2022-09-14T00:04:05;9.43;;;5.10;;
21036;SDS011;10677;50.942;4.028;2022-09-14T00:06:34;9.02;;;5.50;;
21036;SDS011;10677;50.942;4.028;2022-09-14T00:09:01;9.25;;;4.55;;
21036;SDS011;10677;50.942;4.028;2022-09-14T00:11:30;10.85;;;5.38;;
21036;SDS011;10677;50.942;4.028;2022-09-14T00:13:58;9.63;;;4.55;;
21036;SDS011;10677;50.942;4.028;2022-09-14T00:16:27;9.02;;;4.00;;
21036;SDS011;10677;50.942;4.028;2022-09-14T00:19:30;8.57;;;4.32;;
21036;SDS011;10677;50.942;4.028;2022-09-14T00:21:51;8.27;;;4.03;;
21036;SDS011;10677;50.942;4.028;2022-09-14T00:24:19;7.53;;;3.80;;
21036;SDS011;10677;50.942;4.028;2022-09-14T00:26:45;7.78;;;3.85;;
21036;SDS011;10677;50.942;4.028;2022-09-14T00:29:10;11.10;;;4.32;;
21036;SDS011;10677;50.942;4.028;2022-09-14T00:31:37;9.23;;;4.05;;
21036;SDS011;10677;50.942;4.028;2022-09-14T00:34:04;8.10;;;3.88;;
21036;SDS011;10677;50.942;4.028;2022-09-14T00:36:32;11.02;;;3.95;;
21036;SDS011;10677;50.942;4.028;2022-09-14T00:39:01;7.32;;;4.18;;
21036;SDS011;10677;50.942;4.028;2022-09-14T00:41:32;9.10;;;4.18;;
21036;SDS011;10677;50.942;4.028;2022-09-14T00:44:03;11.48;;;4.03;;
21036;SDS011;10677;50.942;4.028;2022-09-14T00:46:48;8.50;;;3.20;;
21036;SDS011;10677;50.942;4.028;2022-09-14T00:49:20;5.97;;;3.55;;
21036;SDS011;10677;50.942;4.028;2022-09-14T00:52:00;8.52;;;3.70;;
21036;SDS011;10677;50.942;4.028;2022-09-14T00:54:33;12.95;;;4.15;;
21036;SDS011;10677;50.942;4.028;2022-09-14T00:57:03;8.40;;;3.28;;
21036;SDS011;10677;50.942;4.028;2022-09-14T00:59:29;8.80;;;3.25;;
21036;SDS011;10677;50.942;4.028;2022-09-14T01:01:58;7.78;;;3.10;;
21036;SDS011;10677;50.942;4.028;2022-09-14T01:04:25;8.45;;;3.25;;
21036;SDS011;10677;50.942;4.028;2022-09-14T01:14:24;6.50;;;2.97;;
21036;SDS011;10677;50.942;4.028;2022-09-14T01:17:17;6.47;;;2.90;;
21036;SDS011;10677;50.942;4.028;2022-09-14T01:22:36;8.30;;;3.55;;
21036;SDS011;10677;50.942;4.028;2022-09-14T01:27:57;10.20;;;3.25;;
21036;SDS011;10677;50.942;4.028;2022-09-14T01:30:28;11.55;;;3.08;;
21036;SDS011;10677;50.942;4.028;2022-09-14T01:33:05;10.10;;;2.80;;
21036;SDS011;10677;50.942;4.028;2022-09-14T01:35:52;10.82;;;3.05;;
21036;SDS011;10677;50.942;4.028;2022-09-14T01:38:25;9.23;;;3.00;;
21036;SDS011;10677;50.942;4.028;2022-09-14T01:41:02;10.00;;;3.10;;
21036;SDS011;10677;50.942;4.028;2022-09-14T01:43:31;10.00;;;2.60;;
21036;SDS011;10677;50.942;4.028;2022-09-14T01:45:59;5.85;;;2.53;;
21036;SDS011;10677;50.942;4.028;2022-09-14T01:48:31;8.68;;;2.88;;
21036;SDS011;10677;50.942;4.028;2022-09-14T01:51:08;9.48;;;2.80;;
21036;SDS011;10677;50.942;4.028;2022-09-14T01:53:39;9.35;;;2.58;;
21036;SDS011;10677;50.942;4.028;2022-09-14T02:01:17;7.18;;;2.65;;
21036;SDS011;10677;50.942;4.028;2022-09-14T02:03:48;9.02;;;2.42;;
21036;SDS011;10677;50.942;4.028;2022-09-14T02:06:34;5.88;;;2.55;;
21036;SDS011;10677;50.942;4.028;2022-09-14T02:09:03;8.15;;;2.92;;
21036;SDS011;10677;50.942;4.028;2022-09-14T02:11:31;10.35;;;4.35;;
21036;SDS011;10677;50.942;4.028;2022-09-14T02:13:57;8.77;;;3.03;;
21036;SDS011;10677;50.942;4.028;2022-09-14T02:16:23;7.40;;;3.08;;
21036;SDS011;10677;50.942;4.028;2022-09-14T02:18:49;8.50;;;2.97;;
21036;SDS011;10677;50.942;4.028;2022-09-14T02:21:16;10.30;;;3.25;;
21036;SDS011;10677;50.942;4.028;2022-09-14T02:23:46;8.82;;;3.65;;
21036;SDS011;10677;50.942;4.028;2022-09-14T02:26:13;9.50;;;3.50;;
21036;SDS011;10677;50.942;4.028;2022-09-14T02:28:40;7.75;;;4.03;;
21036;SDS011;10677;50.942;4.028;2022-09-14T02:36:27;8.93;;;3.63;;
21036;SDS011;10677;50.942;4.028;2022-09-14T02:42:04;9.98;;;4.28;;
21036;SDS011;10677;50.942;4.028;2022-09-14T02:45:17;9.38;;;3.65;;
21036;SDS011;10677;50.942;4.028;2022-09-14T02:48:33;11.00;;;4.32;;
21036;SDS011;10677;50.942;4.028;2022-09-14T02:50:48;11.02;;;4.40;;
21036;SDS011;10677;50.942;4.028;2022-09-14T02:53:21;10.25;;;4.25;;
21036;SDS011;10677;50.942;4.028;2022-09-14T02:56:01;9.93;;;4.25;;
21036;SDS011;10677;50.942;4.028;2022-09-14T02:58:39;9.43;;;5.15;;
21036;SDS011;10677;50.942;4.028;2022-09-14T03:01:07;8.57;;;4.53;;
21036;SDS011;10677;50.942;4.028;2022-09-14T03:03:36;9.27;;;4.68;;
21036;SDS011;10677;50.942;4.028;2022-09-14T03:06:02;8.93;;;5.30;;
21036;SDS011;10677;50.942;4.028;2022-09-14T03:08:28;16.83;;;6.28;;
21036;SDS011;10677;50.942;4.028;2022-09-14T03:10:54;13.25;;;6.65;;
21036;SDS011;10677;50.942;4.028;2022-09-14T03:13:19;14.38;;;6.22;;
21036;SDS011;10677;50.942;4.028;2022-09-14T03:15:45;10.50;;;5.18;;
21036;SDS011;10677;50.942;4.028;2022-09-14T03:18:11;12.38;;;5.72;;
21036;SDS011;10677;50.942;4.028;2022-09-14T03:20:37;11.25;;;6.50;;
21036;SDS011;10677;50.942;4.028;2022-09-14T03:23:03;12.55;;;6.28;;
21036;SDS011;10677;50.942;4.028;2022-09-14T03:25:30;14.25;;;6.75;;
21036;SDS011;10677;50.942;4.028;2022-09-14T03:27:59;10.00;;;6.57;;
21036;SDS011;10677;50.942;4.028;2022-09-14T03:30:25;12.63;;;6.85;;
21036;SDS011;10677;50.942;4.028;2022-09-14T03:32:51;13.55;;;6.38;;
21036;SDS011;10677;50.942;4.028;2022-09-14T03:35:17;11.18;;;6.72;;
21036;SDS011;10677;50.942;4.028;2022-09-14T03:37:44;13.20;;;6.38;;
21036;SDS011;10677;50.942;4.028;2022-09-14T03:40:11;12.85;;;7.80;;
21036;SDS011;10677;50.942;4.028;2022-09-14T03:42:42;14.20;;;7.25;;
21036;SDS011;10677;50.942;4.028;2022-09-14T03:45:09;18.83;;;7.38;;
21036;SDS011;10677;50.942;4.028;2022-09-14T03:47:36;13.55;;;7.22;;
21036;SDS011;10677;50.942;4.028;2022-09-14T03:50:02;16.83;;;8.50;;
21036;SDS011;10677;50.942;4.028;2022-09-14T03:52:28;13.43;;;8.50;;
21036;SDS011;10677;50.942;4.028;2022-09-14T03:54:53;14.30;;;8.43;;
21036;SDS011;10677;50.942;4.028;2022-09-14T03:57:19;17.35;;;8.52;;
21036;SDS011;10677;50.942;4.028;2022-09-14T03:59:45;14.82;;;8.85;;
21036;SDS011;10677;50.942;4.028;2022-09-14T04:02:10;20.48;;;8.73;;
21036;SDS011;10677;50.942;4.028;2022-09-14T04:04:37;15.80;;;8.98;;
21036;SDS011;10677;50.942;4.028;2022-09-14T04:07:03;16.77;;;10.02;;
21036;SDS011;10677;50.942;4.028;2022-09-14T04:09:29;19.42;;;10.57;;
21036;SDS011;10677;50.942;4.028;2022-09-14T04:11:54;18.38;;;10.80;;
21036;SDS011;10677;50.942;4.028;2022-09-14T04:14:20;20.90;;;10.73;;
21036;SDS011;10677;50.942;4.028;2022-09-14T04:16:47;19.30;;;11.27;;
21036;SDS011;10677;50.942;4.028;2022-09-14T04:19:12;20.38;;;11.30;;
21036;SDS011;10677;50.942;4.028;2022-09-14T04:21:38;18.35;;;11.35;;
21036;SDS011;10677;50.942;4.028;2022-09-14T04:24:04;20.75;;;12.30;;
21036;SDS011;10677;50.942;4.028;2022-09-14T04:26:30;22.38;;;11.15;;
21036;SDS011;10677;50.942;4.028;2022-09-14T04:28:56;23.13;;;11.85;;
21036;SDS011;10677;50.942;4.028;2022-09-14T04:31:22;19.63;;;13.02;;
21036;SDS011;10677;50.942;4.028;2022-09-14T04:33:48;23.35;;;13.50;;
21036;SDS011;10677;50.942;4.028;2022-09-14T04:36:16;26.95;;;14.98;;
21036;SDS011;10677;50.942;4.028;2022-09-14T04:38:43;28.95;;;16.55;;
21036;SDS011;10677;50.942;4.028;2022-09-14T04:41:13;26.30;;;15.70;;
21036;SDS011;10677;50.942;4.028;2022-09-14T04:43:41;26.25;;;16.42;;
21036;SDS011;10677;50.942;4.028;2022-09-14T04:46:15;29.38;;;16.13;;
21036;SDS011;10677;50.942;4.028;2022-09-14T04:48:45;26.27;;;16.15;;
21036;SDS011;10677;50.942;4.028;2022-09-14T04:51:15;28.25;;;17.85;;
21036;SDS011;10677;50.942;4.028;2022-09-14T04:53:42;24.45;;;17.33;;
21036;SDS011;10677;50.942;4.028;2022-09-14T04:56:11;23.65;;;16.95;;
21036;SDS011;10677;50.942;4.028;2022-09-14T04:58:38;26.17;;;17.98;;
21036;SDS011;10677;50.942;4.028;2022-09-14T05:01:17;27.20;;;18.25;;
21036;SDS011;10677;50.942;4.028;2022-09-14T05:03:44;27.13;;;17.88;;
21036;SDS011;10677;50.942;4.028;2022-09-14T05:06:13;25.85;;;17.67;;
21036;SDS011;10677;50.942;4.028;2022-09-14T05:08:43;23.83;;;17.23;;
21036;SDS011;10677;50.942;4.028;2022-09-14T05:11:20;22.75;;;17.02;;
21036;SDS011;10677;50.942;4.028;2022-09-14T05:13:47;22.90;;;16.60;;
21036;SDS011;10677;50.942;4.028;2022-09-14T05:16:14;23.80;;;15.85;;
21036;SDS011;10677;50.942;4.028;2022-09-14T05:18:40;22.88;;;16.63;;
21036;SDS011;10677;50.942;4.028;2022-09-14T05:21:07;21.80;;;15.52;;
21036;SDS011;10677;50.942;4.028;2022-09-14T05:23:34;25.63;;;18.00;;
21036;SDS011;10677;50.942;4.028;2022-09-14T05:26:01;23.50;;;17.17;;
21036;SDS011;10677;50.942;4.028;2022-09-14T05:28:27;26.35;;;18.98;;
21036;SDS011;10677;50.942;4.028;2022-09-14T05:30:53;29.08;;;20.00;;
21036;SDS011;10677;50.942;4.028;2022-09-14T05:33:19;26.08;;;19.45;;
21036;SDS011;10677;50.942;4.028;2022-09-14T05:35:46;28.70;;;21.58;;
21036;SDS011;10677;50.942;4.028;2022-09-14T05:38:12;27.63;;;20.75;;
21036;SDS011;10677;50.942;4.028;2022-09-14T05:40:38;28.85;;;21.17;;
21036;SDS011;10677;50.942;4.028;2022-09-14T05:43:04;29.48;;;21.27;;
21036;SDS011;10677;50.942;4.028;2022-09-14T05:45:29;29.48;;;20.60;;
21036;SDS011;10677;50.942;4.028;2022-09-14T05:47:59;30.58;;;21.98;;
21036;SDS011;10677;50.942;4.028;2022-09-14T05:50:26;27.70;;;21.80;;
21036;SDS011;10677;50.942;4.028;2022-09-14T05:52:51;29.60;;;20.60;;
21036;SDS011;10677;50.942;4.028;2022-09-14T05:55:18;31.33;;;21.42;;
21036;SDS011;10677;50.942;4.028;2022-09-14T05:57:47;28.02;;;21.17;;
21036;SDS011;10677;50.942;4.028;2022-09-14T06:00:14;30.58;;;21.38;;
21036;SDS011;10677;50.942;4.028;2022-09-14T06:02:44;34.58;;;22.23;;
21036;SDS011;10677;50.942;4.028;2022-09-14T06:05:10;46.42;;;35.50;;
21036;SDS011;10677;50.942;4.028;2022-09-14T06:07:36;32.45;;;24.77;;
21036;SDS011;10677;50.942;4.028;2022-09-14T06:10:03;36.15;;;23.85;;
21036;SDS011;10677;50.942;4.028;2022-09-14T06:12:29;33.88;;;23.00;;
21036;SDS011;10677;50.942;4.028;2022-09-14T06:14:55;33.65;;;24.85;;
21036;SDS011;10677;50.942;4.028;2022-09-14T06:17:21;34.85;;;24.92;;
21036;SDS011;10677;50.942;4.028;2022-09-14T06:19:46;35.22;;;25.10;;
21036;SDS011;10677;50.942;4.028;2022-09-14T06:22:12;40.08;;;25.88;;
21036;SDS011;10677;50.942;4.028;2022-09-14T06:24:37;41.28;;;28.73;;
21036;SDS011;10677;50.942;4.028;2022-09-14T06:27:03;27.45;;;19.58;;
21036;SDS011;10677;50.942;4.028;2022-09-14T06:29:30;28.80;;;20.35;;
21036;SDS011;10677;50.942;4.028;2022-09-14T06:31:55;29.88;;;20.20;;
21036;SDS011;10677;50.942;4.028;2022-09-14T06:34:21;27.27;;;20.17;;
21036;SDS011;10677;50.942;4.028;2022-09-14T06:36:49;28.42;;;20.35;;
21036;SDS011;10677;50.942;4.028;2022-09-14T06:39:15;26.40;;;18.23;;
21036;SDS011;10677;50.942;4.028;2022-09-14T06:41:41;29.55;;;20.27;;
21036;SDS011;10677;50.942;4.028;2022-09-14T06:44:12;28.00;;;19.00;;
21036;SDS011;10677;50.942;4.028;2022-09-14T06:46:38;25.83;;;18.92;;
21036;SDS011;10677;50.942;4.028;2022-09-14T06:49:05;28.05;;;18.17;;
21036;SDS011;10677;50.942;4.028;2022-09-14T06:51:40;25.52;;;18.02;;
21036;SDS011;10677;50.942;4.028;2022-09-14T06:54:09;26.67;;;17.88;;
21036;SDS011;10677;50.942;4.028;2022-09-14T06:56:37;24.85;;;19.10;;
21036;SDS011;10677;50.942;4.028;2022-09-14T06:59:04;24.98;;;18.20;;
21036;SDS011;10677;50.942;4.028;2022-09-14T07:01:31;30.80;;;19.95;;
21036;SDS011;10677;50.942;4.028;2022-09-14T07:03:59;27.58;;;18.92;;
21036;SDS011;10677;50.942;4.028;2022-09-14T07:06:29;23.30;;;17.65;;
21036;SDS011;10677;50.942;4.028;2022-09-14T07:08:57;28.20;;;19.15;;
21036;SDS011;10677;50.942;4.028;2022-09-14T07:11:24;26.13;;;18.70;;
21036;SDS011;10677;50.942;4.028;2022-09-14T07:13:52;23.70;;;17.10;;
21036;SDS011;10677;50.942;4.028;2022-09-14T07:16:18;23.10;;;17.90;;
21036;SDS011;10677;50.942;4.028;2022-09-14T07:18:45;26.83;;;18.23;;
21036;SDS011;10677;50.942;4.028;2022-09-14T07:21:13;26.88;;;18.13;;
21036;SDS011;10677;50.942;4.028;2022-09-14T07:23:42;23.98;;;17.20;;
21036;SDS011;10677;50.942;4.028;2022-09-14T07:26:17;27.05;;;19.02;;
21036;SDS011;10677;50.942;4.028;2022-09-14T07:28:47;26.42;;;17.95;;
21036;SDS011;10677;50.942;4.028;2022-09-14T07:33:43;24.63;;;17.27;;
21036;SDS011;10677;50.942;4.028;2022-09-14T07:36:10;24.27;;;17.52;;
21036;SDS011;10677;50.942;4.028;2022-09-14T07:38:36;26.25;;;17.35;;
21036;SDS011;10677;50.942;4.028;2022-09-14T07:41:03;25.17;;;17.00;;
21036;SDS011;10677;50.942;4.028;2022-09-14T07:43:29;24.45;;;16.23;;
21036;SDS011;10677;50.942;4.028;2022-09-14T07:45:55;22.55;;;15.80;;
21036;SDS011;10677;50.942;4.028;2022-09-14T07:48:21;20.67;;;14.48;;
21036;SDS011;10677;50.942;4.028;2022-09-14T07:51:03;22.52;;;15.55;;
21036;SDS011;10677;50.942;4.028;2022-09-14T07:53:30;20.40;;;14.40;;
21036;SDS011;10677;50.942;4.028;2022-09-14T07:55:58;21.60;;;15.43;;
21036;SDS011;10677;50.942;4.028;2022-09-14T07:58:27;21.65;;;14.90;;
21036;SDS011;10677;50.942;4.028;2022-09-14T08:01:25;23.02;;;14.68;;
21036;SDS011;10677;50.942;4.028;2022-09-14T08:04:00;18.85;;;14.50;;
21036;SDS011;10677;50.942;4.028;2022-09-14T08:06:30;20.48;;;15.25;;
21036;SDS011;10677;50.942;4.028;2022-09-14T08:08:56;20.40;;;15.93;;
21036;SDS011;10677;50.942;4.028;2022-09-14T08:11:30;39.55;;;31.27;;
21036;SDS011;10677;50.942;4.028;2022-09-14T08:14:00;28.30;;;22.17;;
21036;SDS011;10677;50.942;4.028;2022-09-14T08:16:29;15.35;;;12.93;;
21036;SDS011;10677;50.942;4.028;2022-09-14T08:18:58;17.27;;;12.95;;
21036;SDS011;10677;50.942;4.028;2022-09-14T08:21:26;15.40;;;12.60;;
21036;SDS011;10677;50.942;4.028;2022-09-14T08:23:53;14.55;;;12.05;;
21036;SDS011;10677;50.942;4.028;2022-09-14T08:26:23;15.07;;;11.77;;
21036;SDS011;10677;50.942;4.028;2022-09-14T08:28:50;14.95;;;12.05;;
21036;SDS011;10677;50.942;4.028;2022-09-14T08:31:18;16.95;;;12.98;;
21036;SDS011;10677;50.942;4.028;2022-09-14T08:33:54;14.80;;;12.43;;
21036;SDS011;10677;50.942;4.028;2022-09-14T08:36:29;13.30;;;11.65;;
21036;SDS011;10677;50.942;4.028;2022-09-14T08:52:09;15.02;;;10.88;;
21036;SDS011;10677;50.942;4.028;2022-09-14T08:54:39;12.13;;;10.27;;
21036;SDS011;10677;50.942;4.028;2022-09-14T08:57:14;13.98;;;11.15;;
21036;SDS011;10677;50.942;4.028;2022-09-14T09:11:03;15.63;;;11.23;;
21036;SDS011;10677;50.942;4.028;2022-09-14T09:13:32;15.70;;;11.63;;
21036;SDS011;10677;50.942;4.028;2022-09-14T09:16:03;18.20;;;14.50;;
21036;SDS011;10677;50.942;4.028;2022-09-14T09:18:35;13.05;;;11.20;;
21036;SDS011;10677;50.942;4.028;2022-09-14T09:21:18;13.80;;;11.23;;
21036;SDS011;10677;50.942;4.028;2022-09-14T09:23:47;14.52;;;11.35;;
21036;SDS011;10677;50.942;4.028;2022-09-14T09:26:29;13.75;;;12.02;;
21036;SDS011;10677;50.942;4.028;2022-09-14T09:28:57;12.98;;;10.05;;
21036;SDS011;10677;50.942;4.028;2022-09-14T09:31:37;30.50;;;11.23;;
21036;SDS011;10677;50.942;4.028;2022-09-14T09:34:08;11.40;;;9.70;;
21036;SDS011;10677;50.942;4.028;2022-09-14T09:36:39;11.18;;;9.98;;
21036;SDS011;10677;50.942;4.028;2022-09-14T09:39:11;12.02;;;9.45;;
21036;SDS011;10677;50.942;4.028;2022-09-14T09:44:24;12.18;;;10.25;;
21036;SDS011;10677;50.942;4.028;2022-09-14T09:46:50;12.48;;;10.27;;
21036;SDS011;10677;50.942;4.028;2022-09-14T09:52:09;13.27;;;10.48;;
21036;SDS011;10677;50.942;4.028;2022-09-14T09:55:00;13.73;;;10.23;;
21036;SDS011;10677;50.942;4.028;2022-09-14T09:57:33;15.50;;;12.43;;
21036;SDS011;10677;50.942;4.028;2022-09-14T10:02:38;20.45;;;15.13;;
21036;SDS011;10677;50.942;4.028;2022-09-14T10:10:24;15.30;;;12.85;;
21036;SDS011;10677;50.942;4.028;2022-09-14T10:13:00;13.43;;;10.55;;
21036;SDS011;10677;50.942;4.028;2022-09-14T10:15:30;18.63;;;12.20;;
21036;SDS011;10677;50.942;4.028;2022-09-14T10:25:48;12.90;;;10.88;;
21036;SDS011;10677;50.942;4.028;2022-09-14T10:28:22;15.98;;;11.20;;
21036;SDS011;10677;50.942;4.028;2022-09-14T10:30:58;12.68;;;10.82;;
21036;SDS011;10677;50.942;4.028;2022-09-14T10:33:27;14.05;;;11.32;;
21036;SDS011;10677;50.942;4.028;2022-09-14T10:38:50;14.57;;;12.90;;
21036;SDS011;10677;50.942;4.028;2022-09-14T10:50:06;18.98;;;14.38;;
21036;SDS011;10677;50.942;4.028;2022-09-14T10:57:40;18.65;;;14.65;;
21036;SDS011;10677;50.942;4.028;2022-09-14T11:00:11;21.52;;;14.85;;
21036;SDS011;10677;50.942;4.028;2022-09-14T11:05:45;22.73;;;15.05;;
21036;SDS011;10677;50.942;4.028;2022-09-14T11:14:19;20.85;;;15.52;;
21036;SDS011;10677;50.942;4.028;2022-09-14T11:17:03;21.17;;;16.05;;
21036;SDS011;10677;50.942;4.028;2022-09-14T11:19:52;18.38;;;14.38;;
21036;SDS011;10677;50.942;4.028;2022-09-14T11:25:11;20.30;;;15.45;;
21036;SDS011;10677;50.942;4.028;2022-09-14T11:28:04;22.25;;;16.25;;
21036;SDS011;10677;50.942;4.028;2022-09-14T11:30:38;18.80;;;14.75;;
21036;SDS011;10677;50.942;4.028;2022-09-14T11:38:41;20.95;;;14.05;;
21036;SDS011;10677;50.942;4.028;2022-09-14T11:41:30;18.02;;;13.90;;
21036;SDS011;10677;50.942;4.028;2022-09-14T11:46:47;19.63;;;14.82;;
21036;SDS011;10677;50.942;4.028;2022-09-14T11:49:18;18.35;;;13.93;;
21036;SDS011;10677;50.942;4.028;2022-09-14T11:52:26;22.90;;;14.75;;
21036;SDS011;10677;50.942;4.028;2022-09-14T11:54:55;18.52;;;13.63;;
21036;SDS011;10677;50.942;4.028;2022-09-14T11:57:25;23.00;;;15.60;;
21036;SDS011;10677;50.942;4.028;2022-09-14T12:00:00;19.70;;;15.73;;
21036;SDS011;10677;50.942;4.028;2022-09-14T12:05:22;23.50;;;15.80;;
21036;SDS011;10677;50.942;4.028;2022-09-14T12:10:25;19.10;;;15.77;;
21036;SDS011;10677;50.942;4.028;2022-09-14T12:12:55;17.70;;;15.63;;
21036;SDS011;10677;50.942;4.028;2022-09-14T12:41:00;14.02;;;10.70;;
21036;SDS011;10677;50.942;4.028;2022-09-14T13:04:38;11.50;;;10.23;;
21036;SDS011;10677;50.942;4.028;2022-09-14T13:07:16;12.00;;;9.90;;
21036;SDS011;10677;50.942;4.028;2022-09-14T13:10:03;14.60;;;9.95;;
21036;SDS011;10677;50.942;4.028;2022-09-14T13:12:33;12.30;;;9.75;;
21036;SDS011;10677;50.942;4.028;2022-09-14T13:15:12;14.45;;;11.32;;
21036;SDS011;10677;50.942;4.028;2022-09-14T13:17:56;12.82;;;10.05;;
21036;SDS011;10677;50.942;4.028;2022-09-14T13:20:27;21.83;;;12.50;;
21036;SDS011;10677;50.942;4.028;2022-09-14T13:22:54;12.93;;;10.10;;
21036;SDS011;10677;50.942;4.028;2022-09-14T13:25:30;9.88;;;8.63;;
21036;SDS011;10677;50.942;4.028;2022-09-14T13:27:59;10.95;;;8.98;;
21036;SDS011;10677;50.942;4.028;2022-09-14T13:30:26;11.00;;;8.85;;
21036;SDS011;10677;50.942;4.028;2022-09-14T13:32:54;10.57;;;7.80;;
21036;SDS011;10677;50.942;4.028;2022-09-14T13:38:33;9.05;;;7.32;;
21036;SDS011;10677;50.942;4.028;2022-09-14T13:41:08;9.48;;;7.05;;
21036;SDS011;10677;50.942;4.028;2022-09-14T13:43:38;9.18;;;6.57;;
21036;SDS011;10677;50.942;4.028;2022-09-14T13:46:05;7.90;;;6.65;;
21036;SDS011;10677;50.942;4.028;2022-09-14T13:48:32;9.57;;;6.47;;
21036;SDS011;10677;50.942;4.028;2022-09-14T13:51:01;8.65;;;6.75;;
21036;SDS011;10677;50.942;4.028;2022-09-14T13:53:36;7.35;;;6.40;;
21036;SDS011;10677;50.942;4.028;2022-09-14T13:58:48;6.53;;;5.22;;
21036;SDS011;10677;50.942;4.028;2022-09-14T14:01:23;10.32;;;6.47;;
21036;SDS011;10677;50.942;4.028;2022-09-14T14:03:50;10.35;;;7.25;;
21036;SDS011;10677;50.942;4.028;2022-09-14T14:11:29;9.68;;;7.57;;
21036;SDS011;10677;50.942;4.028;2022-09-14T14:14:15;8.32;;;7.20;;
21036;SDS011;10677;50.942;4.028;2022-09-14T14:19:37;9.60;;;6.25;;
21036;SDS011;10677;50.942;4.028;2022-09-14T14:24:40;8.43;;;6.07;;
21036;SDS011;10677;50.942;4.028;2022-09-14T14:27:29;9.88;;;6.70;;
21036;SDS011;10677;50.942;4.028;2022-09-14T14:29:57;8.13;;;6.35;;
21036;SDS011;10677;50.942;4.028;2022-09-14T14:32:24;9.00;;;6.03;;
21036;SDS011;10677;50.942;4.028;2022-09-14T14:34:52;8.93;;;5.45;;
21036;SDS011;10677;50.942;4.028;2022-09-14T14:37:18;6.25;;;4.18;;
21036;SDS011;10677;50.942;4.028;2022-09-14T14:39:45;7.57;;;4.85;;
21036;SDS011;10677;50.942;4.028;2022-09-14T14:42:14;6.72;;;5.15;;
21036;SDS011;10677;50.942;4.028;2022-09-14T14:44:41;7.35;;;5.25;;
21036;SDS011;10677;50.942;4.028;2022-09-14T14:47:09;6.30;;;4.60;;
21036;SDS011;10677;50.942;4.028;2022-09-14T14:49:36;8.38;;;5.00;;
21036;SDS011;10677;50.942;4.028;2022-09-14T14:52:02;5.07;;;4.57;;
21036;SDS011;10677;50.942;4.028;2022-09-14T14:54:27;8.82;;;5.93;;
21036;SDS011;10677;50.942;4.028;2022-09-14T14:56:53;7.82;;;5.68;;
21036;SDS011;10677;50.942;4.028;2022-09-14T15:01:49;7.72;;;5.60;;
21036;SDS011;10677;50.942;4.028;2022-09-14T15:04:16;8.40;;;6.53;;
21036;SDS011;10677;50.942;4.028;2022-09-14T15:06:42;9.10;;;7.78;;
21036;SDS011;10677;50.942;4.028;2022-09-14T15:09:14;8.40;;;7.20;;
21036;SDS011;10677;50.942;4.028;2022-09-14T15:11:42;10.63;;;8.05;;
21036;SDS011;10677;50.942;4.028;2022-09-14T15:14:09;10.95;;;9.02;;
21036;SDS011;10677;50.942;4.028;2022-09-14T15:16:40;11.35;;;8.50;;
21036;SDS011;10677;50.942;4.028;2022-09-14T15:19:06;10.38;;;8.60;;
21036;SDS011;10677;50.942;4.028;2022-09-14T15:21:32;12.43;;;7.18;;
21036;SDS011;10677;50.942;4.028;2022-09-14T15:23:58;9.25;;;6.93;;
21036;SDS011;10677;50.942;4.028;2022-09-14T15:26:24;7.65;;;6.40;;
21036;SDS011;10677;50.942;4.028;2022-09-14T15:28:50;8.60;;;6.47;;
21036;SDS011;10677;50.942;4.028;2022-09-14T15:31:16;10.13;;;6.32;;
21036;SDS011;10677;50.942;4.028;2022-09-14T15:33:42;6.55;;;5.53;;
21036;SDS011;10677;50.942;4.028;2022-09-14T15:36:08;7.13;;;5.47;;
21036;SDS011;10677;50.942;4.028;2022-09-14T15:38:35;7.18;;;5.20;;
21036;SDS011;10677;50.942;4.028;2022-09-14T15:41:00;6.50;;;4.93;;
21036;SDS011;10677;50.942;4.028;2022-09-14T15:43:26;6.60;;;5.28;;
21036;SDS011;10677;50.942;4.028;2022-09-14T15:45:52;8.82;;;5.30;;
21036;SDS011;10677;50.942;4.028;2022-09-14T15:48:18;7.97;;;4.82;;
21036;SDS011;10677;50.942;4.028;2022-09-14T15:50:44;9.80;;;5.47;;
21036;SDS011;10677;50.942;4.028;2022-09-14T15:53:12;8.23;;;5.75;;
21036;SDS011;10677;50.942;4.028;2022-09-14T15:55:40;7.97;;;5.95;;
21036;SDS011;10677;50.942;4.028;2022-09-14T15:58:07;7.10;;;5.38;;
21036;SDS011;10677;50.942;4.028;2022-09-14T16:00:33;8.98;;;5.68;;
21036;SDS011;10677;50.942;4.028;2022-09-14T16:03:00;8.88;;;5.90;;
21036;SDS011;10677;50.942;4.028;2022-09-14T16:05:25;8.73;;;6.03;;
21036;SDS011;10677;50.942;4.028;2022-09-14T16:07:52;8.07;;;5.30;;
21036;SDS011;10677;50.942;4.028;2022-09-14T16:10:18;6.45;;;4.97;;
21036;SDS011;10677;50.942;4.028;2022-09-14T16:12:44;8.82;;;4.85;;
21036;SDS011;10677;50.942;4.028;2022-09-14T16:15:10;7.10;;;4.60;;
21036;SDS011;10677;50.942;4.028;2022-09-14T16:17:35;6.35;;;4.63;;
21036;SDS011;10677;50.942;4.028;2022-09-14T16:20:02;10.57;;;4.82;;
21036;SDS011;10677;50.942;4.028;2022-09-14T16:22:28;6.68;;;4.65;;
21036;SDS011;10677;50.942;4.028;2022-09-14T16:24:54;8.07;;;4.78;;
21036;SDS011;10677;50.942;4.028;2022-09-14T16:27:19;7.15;;;4.70;;
21036;SDS011;10677;50.942;4.028;2022-09-14T16:29:45;10.95;;;7.35;;
21036;SDS011;10677;50.942;4.028;2022-09-14T16:32:11;7.45;;;5.32;;
21036;SDS011;10677;50.942;4.028;2022-09-14T16:34:37;19.67;;;12.23;;
21036;SDS011;10677;50.942;4.028;2022-09-14T16:37:02;8.23;;;5.75;;
21036;SDS011;10677;50.942;4.028;2022-09-14T16:39:29;11.48;;;6.20;;
21036;SDS011;10677;50.942;4.028;2022-09-14T16:41:55;10.75;;;8.40;;
21036;SDS011;10677;50.942;4.028;2022-09-14T16:44:24;10.35;;;7.85;;
21036;SDS011;10677;50.942;4.028;2022-09-14T16:46:52;13.10;;;9.65;;
21036;SDS011;10677;50.942;4.028;2022-09-14T16:49:19;14.15;;;9.48;;
21036;SDS011;10677;50.942;4.028;2022-09-14T16:51:46;12.73;;;9.45;;
21036;SDS011;10677;50.942;4.028;2022-09-14T16:54:13;10.30;;;7.82;;
21036;SDS011;10677;50.942;4.028;2022-09-14T16:56:40;12.60;;;8.60;;
21036;SDS011;10677;50.942;4.028;2022-09-14T16:59:07;10.75;;;7.10;;
21036;SDS011;10677;50.942;4.028;2022-09-14T17:01:37;10.63;;;7.00;;
21036;SDS011;10677;50.942;4.028;2022-09-14T17:04:08;13.55;;;9.85;;
21036;SDS011;10677;50.942;4.028;2022-09-14T17:06:37;12.23;;;8.57;;
21036;SDS011;10677;50.942;4.028;2022-09-14T17:09:09;12.98;;;9.32;;
21036;SDS011;10677;50.942;4.028;2022-09-14T17:11:39;12.10;;;9.57;;
21036;SDS011;10677;50.942;4.028;2022-09-14T17:14:06;12.90;;;10.57;;
21036;SDS011;10677;50.942;4.028;2022-09-14T17:16:32;19.70;;;14.40;;
21036;SDS011;10677;50.942;4.028;2022-09-14T17:18:59;17.02;;;13.63;;
21036;SDS011;10677;50.942;4.028;2022-09-14T17:21:31;14.80;;;11.48;;
21036;SDS011;10677;50.942;4.028;2022-09-14T17:23:59;17.75;;;14.43;;
21036;SDS011;10677;50.942;4.028;2022-09-14T17:26:26;16.85;;;12.27;;
21036;SDS011;10677;50.942;4.028;2022-09-14T17:28:53;15.40;;;12.23;;
21036;SDS011;10677;50.942;4.028;2022-09-14T17:31:21;17.77;;;12.98;;
21036;SDS011;10677;50.942;4.028;2022-09-14T17:33:48;13.32;;;10.50;;
21036;SDS011;10677;50.942;4.028;2022-09-14T17:36:16;18.23;;;12.82;;
21036;SDS011;10677;50.942;4.028;2022-09-14T17:38:42;17.55;;;12.02;;
21036;SDS011;10677;50.942;4.028;2022-09-14T17:41:10;15.02;;;10.95;;
21036;SDS011;10677;50.942;4.028;2022-09-14T17:43:40;13.20;;;9.77;;
21036;SDS011;10677;50.942;4.028;2022-09-14T17:46:08;11.70;;;9.20;;
21036;SDS011;10677;50.942;4.028;2022-09-14T17:48:37;12.45;;;9.18;;